MSC Magnifica — 3FLO4 — position and weather

sailwx.info

Track history (hours):
 
Tides and Currents Weather Stations Pressure Air Temp Water Temp Dewpoint Dewpoint Depression Visibility Wind Speed Wind Dir Waves Ship Positions

MSC Magnifica

Last reported at 2017-Dec-11 06:22 UTC. Time now 2017-Dec-14 15:07 UTC.
Position S 26°57' W 047°43'.

Length 294 m; draft 7.8 m.

Type: Passenger vessel. MMSI: 352594000.

Date/timePositionNaut miles runAvg speedWind from/ knotsBaromVisibWave heightAir tempDewpointWater temp
2017-Dec-11 06:22S 26°57' W 047°43'720.1
2017-Dec-11 06:00S 26°51' W 047°39'4921.2
2017-Dec-11 03:42S 26°05' W 047°18'522.1
2017-Dec-11 03:27S 26°00' W 047°16'1022.1
2017-Dec-11 03:00S 25°51' W 047°11'1622.2
2017-Dec-11 02:18S 25°37' W 047°05'722.1
2017-Dec-11 02:00S 25°31' W 047°02'1222.0
2017-Dec-11 01:27S 25°20' W 046°57'1521.8
2017-Dec-11 00:47S 25°06' W 046°51'722.0
2017-Dec-11 00:29S 25°00' W 046°47'2222.4
2017-Dec-10 23:29S 24°40' W 046°38'1122.3
2017-Dec-10 23:00S 24°30' W 046°34'1122.1
2017-Dec-10 22:30S 24°20' W 046°29'1121.9
2017-Dec-10 22:00S 24°10' W 046°24'1019.8
2017-Dec-10 21:30S 24°00' W 046°20'3 6.5
2017-Dec-10 20:58S 23°57' W 046°18'0 0.1
2017-Dec-10 15:38S 23°57' W 046°19'0 0.0
2017-Dec-10 15:20S 23°57' W 046°19'0 0.0
2017-Dec-10 14:59S 23°57' W 046°19'0 0.0
2017-Dec-10 09:06S 23°57' W 046°19'0 0.9
2017-Dec-10 09:00S 23°57' W 046°18'2 4.4
2017-Dec-10 08:30S 23°59' W 046°17'4 7.6
2017-Dec-10 08:00S 24°02' W 046°21'713.3
2017-Dec-10 07:30S 24°06' W 046°15'918.0
2017-Dec-10 07:00S 24°09' W 046°06'918.0
2017-Dec-10 06:30S 24°13' W 045°57'  
2017-Dec-01 18:37N 28°16' W 016°05'319.5
2017-Dec-01 18:29N 28°19' W 016°04'919.2
2017-Dec-01 18:00N 28°26' W 016°10'5 0.5
2017-Dec-01 08:01N 28°29' W 016°15'0 4.0
2017-Dec-01 07:54N 28°29' W 016°14'2 5.2
2017-Dec-01 07:27N 28°28' W 016°12'817.7
2017-Dec-01 07:00N 28°32' W 016°04'918.3
2017-Dec-01 06:30N 28°37' W 015°55'  
Track history (hours):
 
Tides and Currents Weather Stations Pressure Air Temp Water Temp Dewpoint Dewpoint Depression Visibility Wind Speed Wind Dir Waves Ship Positions

MSC Magnifica

Last reported at 2017-Dec-11 06:22 UTC. Time now 2017-Dec-14 15:07 UTC.
Position S 26°57' W 047°43'.

Length 294 m; draft 7.8 m.

Type: Passenger vessel. MMSI: 352594000.

Date/timePositionNaut miles runAvg speedWind from/ knotsBaromVisibWave heightAir tempDewpointWater temp
2017-Dec-11 06:22S 26°57' W 047°43'720.1
2017-Dec-11 06:00S 26°51' W 047°39'4921.2
2017-Dec-11 03:42S 26°05' W 047°18'522.1
2017-Dec-11 03:27S 26°00' W 047°16'1022.1
2017-Dec-11 03:00S 25°51' W 047°11'1622.2
2017-Dec-11 02:18S 25°37' W 047°05'722.1
2017-Dec-11 02:00S 25°31' W 047°02'1222.0
2017-Dec-11 01:27S 25°20' W 046°57'1521.8
2017-Dec-11 00:47S 25°06' W 046°51'722.0
2017-Dec-11 00:29S 25°00' W 046°47'2222.4
2017-Dec-10 23:29S 24°40' W 046°38'1122.3
2017-Dec-10 23:00S 24°30' W 046°34'1122.1
2017-Dec-10 22:30S 24°20' W 046°29'1121.9
2017-Dec-10 22:00S 24°10' W 046°24'1019.8
2017-Dec-10 21:30S 24°00' W 046°20'3 6.5
2017-Dec-10 20:58S 23°57' W 046°18'0 0.1
2017-Dec-10 15:38S 23°57' W 046°19'0 0.0
2017-Dec-10 15:20S 23°57' W 046°19'0 0.0
2017-Dec-10 14:59S 23°57' W 046°19'0 0.0
2017-Dec-10 09:06S 23°57' W 046°19'0 0.9
2017-Dec-10 09:00S 23°57' W 046°18'2 4.4
2017-Dec-10 08:30S 23°59' W 046°17'4 7.6
2017-Dec-10 08:00S 24°02' W 046°21'713.3
2017-Dec-10 07:30S 24°06' W 046°15'918.0
2017-Dec-10 07:00S 24°09' W 046°06'918.0
2017-Dec-10 06:30S 24°13' W 045°57'  
2017-Dec-01 18:37N 28°16' W 016°05'319.5
2017-Dec-01 18:29N 28°19' W 016°04'919.2
2017-Dec-01 18:00N 28°26' W 016°10'5 0.5
2017-Dec-01 08:01N 28°29' W 016°15'0 4.0
2017-Dec-01 07:54N 28°29' W 016°14'2 5.2
2017-Dec-01 07:27N 28°28' W 016°12'817.7
2017-Dec-01 07:00N 28°32' W 016°04'918.3
2017-Dec-01 06:30N 28°37' W 015°55'  

Dump ship's entire track history